Flight Track Log - Related Links

Times and Time Zones

All times are in EDT time to prevent confusion due to time zone crossing. See the N549PA flight status page for this flight to view local times or setup timezone preferences in your user account.

Time Position Orientation Groundspeed Altitude Reporting Facility
EDT Latitude Longitude Course Direction KTS MPH feet Rate Location/Type
Sat 02:07:32 PM 44.9167 -93.3000 292° West 250 288 3,600  Level Minneapolis TRACON
Sat 02:08:39 PM 44.9417 -93.3881 292° West 263 303 7,200 3,767 Climbing Minneapolis Center
Sat 02:09:41 PM 44.9553 -93.5169 279° West 281 323 11,700 3,532 Climbing Minneapolis Center
Sat 02:10:43 PM 44.9739 -93.6336 283° West 308 354 14,500 3,024 Climbing Minneapolis Center
Sat 02:11:44 PM 44.9858 -93.7578 278° West 321 369 17,900 3,073 Climbing Minneapolis Center
Sat 02:12:46 PM 45.0064 -93.8806 283° West 321 369 20,800 2,516 Climbing Minneapolis Center
Sat 02:13:48 PM 45.0150 -94.0156 275° West 342 394 23,100 2,098 Climbing Minneapolis Center
Sat 02:14:49 PM 45.0453 -94.1475 288° West 352 405 25,100 2,098 Climbing Minneapolis Center
Sat 02:15:51 PM 45.0583 -94.2897 277° West 363 418 27,400 1,984 Climbing Minneapolis Center
Sat 02:16:53 PM 45.0917 -94.4581 286° West 370 426 29,200 1,805 Climbing Minneapolis Center
Sat 02:17:54 PM 45.0975 -94.6081 273° West 381 438 31,100 1,951 Climbing Minneapolis Center
Sat 02:18:56 PM 45.1217 -94.7619 283° West 374 430 33,200 1,935 Climbing Minneapolis Center
Sat 02:19:58 PM 45.1300 -94.9022 275° West 363 418 35,100 1,452 Climbing Minneapolis Center
Sat 02:21:00 PM 45.1469 -95.0367 280° West 353 406 36,200 1,220 Climbing Minneapolis Center
Sat 02:22:01 PM 45.1522 -95.1767 273° West 357 411 37,600 1,268 Climbing Minneapolis Center
Sat 02:23:03 PM 45.1694 -95.3092 280° West 343 395 38,800 919 Climbing Minneapolis Center
Sat 02:24:05 PM 45.1847 -95.4153 282° West 343 395 39,500 585 Climbing Minneapolis Center
Sat 02:25:06 PM 45.1906 -95.5531 273° West 350 403 40,000 290 Climbing Minneapolis Center
Sat 02:26:09 PM 45.2119 -95.7544 279° West 368 423 40,100  Climbing Minneapolis Center
Sat 02:27:10 PM 45.2256 -95.9075 277° West 386 444 40,000  Descending Minneapolis Center
Sat 02:28:25 PM 45.2394 -96.0933 276° West 396 456 40,100  Climbing Minneapolis Center
Sat 02:29:26 PM 45.2586 -96.2458 280° West 396 456 40,000 -49 Descending Minneapolis Center
Sat 02:30:28 PM 45.2614 -96.3969 272° West 386 444 40,000  Level Minneapolis Center
Sat 02:31:30 PM 45.2228 -96.5686 252° West 384 442 40,000  Level Minneapolis Center
Sat 02:32:32 PM 45.2103 -96.7178 263° West 382 440 40,000  Level Minneapolis Center
Sat 02:33:34 PM 45.1911 -96.8661 260° West 384 442 40,000  Level Minneapolis Center
Sat 02:34:36 PM 45.1547 -97.0103 250° West 389 448 40,000  Level Minneapolis Center
Sat 02:35:37 PM 45.1372 -97.1589 261° West 387 445 40,000  Level Minneapolis Center
Sat 02:36:39 PM 45.1261 -97.3089 264° West 385 443 40,000  Level Minneapolis Center
Sat 02:37:41 PM 45.0914 -97.4867 255° West 390 449 40,000  Level Minneapolis Center
Sat 02:38:43 PM 45.0619 -97.6333 254° West 390 449 40,000  Level Minneapolis Center
Sat 02:39:45 PM 45.0328 -97.7828 255° West 394 453 40,000  Level Minneapolis Center
Sat 02:40:46 PM 45.0122 -97.8986 256° West 388 447 40,000  Level Minneapolis Center
Sat 02:41:49 PM 44.9808 -98.0742 256° West 386 444 40,000  Level Minneapolis Center
Sat 02:42:50 PM 44.9539 -98.2214 256° West 387 445 40,000  Level Minneapolis Center
Sat 02:43:52 PM 44.9325 -98.3994 260° West 388 447 40,000  Level Minneapolis Center
Sat 02:44:54 PM 44.9194 -98.5422 263° West 381 438 40,000  Level Minneapolis Center
Sat 02:45:56 PM 44.8997 -98.6897 259° West 380 437 40,000  Level Minneapolis Center
Sat 02:46:58 PM 44.8664 -98.8353 252° West 385 443 40,000  Level Minneapolis Center
Sat 02:48:00 PM 44.8361 -98.9808 254° West 387 445 40,000  Level Minneapolis Center
Sat 02:49:02 PM 44.8092 -99.1264 255° West 386 444 40,000  Level Minneapolis Center
Sat 02:50:04 PM 44.7808 -99.2739 255° West 388 447 40,000  Level Minneapolis Center
Sat 02:51:06 PM 44.7542 -99.4211 256° West 388 447 40,000  Level Minneapolis Center
Sat 02:52:07 PM 44.7261 -99.6000 258° West 388 447 40,000  Level Minneapolis Center
Sat 02:53:09 PM 44.7039 -99.7494 258° West 388 447 40,000  Level Minneapolis Center
Sat 02:54:11 PM 44.6825 -99.9003 259° West 389 448 40,000  Level Minneapolis Center
Sat 02:55:13 PM 44.6575 -100.0489 257° West 389 448 40,000  Level Minneapolis Center
Sat 02:56:14 PM 44.6303 -100.1975 256° West 390 449 40,000  Level Minneapolis Center
Sat 02:57:16 PM 44.6011 -100.3436 254° West 388 447 40,000 -871 Level Minneapolis Center
Sat 02:58:18 PM 44.5672 -100.4936 252° West 396 456 38,200 -1,707 Descending Minneapolis Center
Sat 02:59:19 PM 44.5306 -100.6464 251° West 409 471 36,500 -2,000 Descending Minneapolis Center
Sat 03:00:21 PM 44.4989 -100.7989 254° West 408 470 34,100 -2,468 Descending Minneapolis Center
Sat 03:01:23 PM 44.4664 -100.9833 256° West 408 470 31,400 -2,613 Descending Minneapolis Center
Sat 03:02:25 PM 44.4439 -101.1378 259° West 405 466 28,700 -2,585 Descending Minneapolis Center
Sat 03:03:26 PM 44.4164 -101.2925 256° West 407 468 26,100 -2,146 Descending Minneapolis Center
Sat 03:04:28 PM 44.3861 -101.4417 254° West 406 467 24,300 -1,068 Descending Minneapolis Center
Sat 03:05:24 PM 44.3594 -101.5597 253° West 403 464 24,000 -1,525 Descending Denver Center
Sat 03:06:26 PM 44.3217 -101.7375 254° West 400 460 21,300 -2,533 Descending Denver Center
Sat 03:06:54 PM 44.3125 -101.8058 259° West 386 444 20,200 -2,323 Descending Denver Center
Sat 03:07:28 PM 44.2947 -101.8800 252° West 384 442 18,900 -2,449 Descending Denver Center
Sat 03:07:43 PM 44.2869 -101.9144 253° West 367 422 18,200 -2,419 Descending Denver Center
Sat 03:08:30 PM 44.2633 -102.0092 251° West 360 414 16,400 -2,361 Descending Denver Center
Sat 03:08:44 PM 44.2589 -102.0478 261° West 336 387 15,800 -2,361 Descending Denver Center
Sat 03:09:31 PM 44.2431 -102.1308 255° West 328 377 14,000 -2,600 Descending Denver Center
Sat 03:09:44 PM 44.2381 -102.1608 257° West 309 356 13,200 -2,757 Descending Denver Center
Sat 03:10:45 PM 44.2156 -102.2772 255° West 291 335 10,600 -2,727 Descending Denver Center
Sat 03:11:45 PM 44.1917 -102.3850 253° West 274 315 7,700 -1,622 Descending Denver Center
Sat 03:12:36 PM 44.1706 -102.4678 250° West 290 334 7,600 -1,180 Descending Denver Center
Sat 03:12:46 PM 44.1692 -102.4892 265° West 288 331 6,500 -1,859 Descending Denver Center
Sat 03:13:47 PM 44.1450 -102.5967 253° West 286 329 5,400 -545 Descending Denver Center
Sat 03:14:47 PM 44.1242 -102.6975 254° West 282 325 5,400 -198 Level Denver Center
Sat 03:15:48 PM 44.1050 -102.7975 255° West 251 289 5,000 -347 Descending Denver Center
Sat 03:16:48 PM 44.0897 -102.8814 256° West 228 262 4,700 -149 Descending Denver Center
Sat 03:17:49 PM 44.0742 -102.9628 255° West 205 236 4,700 -148 Level Denver Center
Sat 03:18:50 PM 44.0819 -103.0283 279° West 169 194 4,400 -545 Descending Denver Center
Sat 03:19:50 PM 44.0669 -103.0711 244° Southwest 123 142 3,600 -800 Descending Denver Center

Login

Don't have an account? Register now (free) for customized features, flight alerts, and more!